Time;durP1;ratioP1;P1;durP2;ratioP2;P2;SDS_P1;SDS_P2;PMS_P1;PMS_P2;Temp;Humidity;BMP_temperature;BMP_pressure;BME280_temperature;BME280_humidity;BME280_pressure;Samples;Min_cycle;Max_cycle;Signal;HPM_P1;HPM_P2
2021/09/10 00:02:16;;;;;;;50.85;32.65;;;;;;;13.03;66.26;100716.47;1749092;80;21039;-71
2021/09/10 00:04:42;;;;;;;51.48;33.83;;;;;;;13.02;66.24;100718.73;1745374;80;21036;-71
2021/09/10 00:07:09;;;;;;;47.98;32.73;;;;;;;12.98;66.23;100717.33;1750330;80;21424;-71
2021/09/10 00:09:37;;;;;;;53.95;33.67;;;;;;;12.92;66.33;100714.34;1774728;80;22711;-71
2021/09/10 00:12:04;;;;;;;53.05;33.38;;;;;;;12.88;66.42;100711.12;1761391;80;21126;-73
2021/09/10 00:14:30;;;;;;;53.92;33.95;;;;;;;12.85;66.46;100711.38;1726287;82;21131;-71
2021/09/10 00:16:56;;;;;;;48.33;32.03;;;;;;;12.81;66.52;100712.10;1775284;80;20968;-71
2021/09/10 00:19:23;;;;;;;50.08;32.78;;;;;;;12.79;66.51;100706.09;1737514;82;21037;-71
2021/09/10 00:21:49;;;;;;;49.70;32.15;;;;;;;12.78;66.50;100703.58;1773767;80;22254;-72
2021/09/10 00:24:16;;;;;;;48.28;33.15;;;;;;;12.77;66.47;100709.85;1745734;80;20845;-71
2021/09/10 00:26:43;;;;;;;50.60;33.08;;;;;;;12.74;66.52;100704.78;1766178;80;20937;-71
2021/09/10 00:29:10;;;;;;;49.93;32.95;;;;;;;12.71;66.54;100704.56;1759525;80;20988;-71
2021/09/10 00:31:37;;;;;;;53.25;33.80;;;;;;;12.68;66.54;100710.12;1745309;80;20953;-71
2021/09/10 00:34:03;;;;;;;50.58;33.05;;;;;;;12.65;66.57;100705.09;1752047;80;22193;-71
2021/09/10 00:36:31;;;;;;;56.40;33.88;;;;;;;12.61;66.65;100708.94;1744925;80;20921;-71
2021/09/10 00:38:57;;;;;;;52.23;33.33;;;;;;;12.58;66.73;100707.88;1744556;81;20996;-71
2021/09/10 00:41:24;;;;;;;52.03;33.48;;;;;;;12.58;66.80;100708.72;1775234;80;21008;-70
2021/09/10 00:43:51;;;;;;;50.28;32.60;;;;;;;12.57;66.85;100702.23;1762305;80;20941;-70
2021/09/10 00:46:19;;;;;;;47.05;32.75;;;;;;;12.55;66.84;100699.71;1731469;82;20949;-70
2021/09/10 00:48:47;;;;;;;49.00;31.55;;;;;;;12.58;66.86;100700.77;1749345;80;20996;-70
2021/09/10 00:51:15;;;;;;;57.03;35.65;;;;;;;12.57;66.85;100699.09;1744240;82;21036;-70
2021/09/10 00:53:41;;;;;;;55.05;34.08;;;;;;;12.56;66.90;100704.52;1749389;80;20995;-70
2021/09/10 00:56:09;;;;;;;53.10;34.33;;;;;;;12.53;66.91;100701.63;1765218;80;21004;-70
2021/09/10 00:58:37;;;;;;;51.80;32.33;;;;;;;12.50;66.92;100707.18;1775077;80;22242;-70
2021/09/10 01:01:03;;;;;;;52.75;34.88;;;;;;;12.48;66.94;100703.82;1761942;80;20997;-70
2021/09/10 01:03:29;;;;;;;55.40;35.17;;;;;;;12.45;67.01;100704.54;1765509;79;20992;-70
2021/09/10 01:05:57;;;;;;;56.58;36.50;;;;;;;12.43;67.10;100709.97;1754257;80;20973;-71
2021/09/10 01:08:25;;;;;;;56.85;38.50;;;;;;;12.41;67.18;100708.42;1744811;80;21507;-71
2021/09/10 01:10:52;;;;;;;64.80;40.92;;;;;;;12.42;67.25;100712.75;1727063;80;21848;-71
2021/09/10 01:13:18;;;;;;;67.15;42.35;;;;;;;12.43;67.30;100715.27;1772005;79;21039;-71
2021/09/10 01:15:46;;;;;;;73.95;41.20;;;;;;;12.46;67.33;100714.20;1761758;80;21490;-71
2021/09/10 01:18:13;;;;;;;63.40;40.40;;;;;;;12.48;67.34;100715.75;1750961;80;21537;-71
2021/09/10 01:20:41;;;;;;;66.28;40.15;;;;;;;12.49;67.23;100712.61;1737120;82;21089;-71
2021/09/10 01:23:07;;;;;;;63.02;38.67;;;;;;;12.46;67.23;100712.88;1767876;80;22218;-71
2021/09/10 01:25:34;;;;;;;60.43;38.35;;;;;;;12.42;67.22;100710.09;1755124;80;21165;-73
2021/09/10 01:28:03;;;;;;;59.30;37.67;;;;;;;12.37;67.19;100713.62;1735742;82;21037;-73
2021/09/10 01:30:32;;;;;;;61.50;37.55;;;;;;;12.30;67.21;100713.27;1752060;80;20961;-72
2021/09/10 01:33:02;;;;;;;58.35;37.93;;;;;;;12.23;67.27;100713.40;1769993;80;21017;-71
2021/09/10 01:35:29;;;;;;;64.45;38.78;;;;;;;12.16;67.35;100712.20;1750324;80;22418;-72
2021/09/10 01:37:55;;;;;;;57.95;38.65;;;;;;;12.11;67.41;100707.78;1735912;82;21467;-71
2021/09/10 01:40:22;;;;;;;56.88;37.33;;;;;;;12.08;67.49;100711.52;1748244;80;21788;-72
2021/09/10 01:42:48;;;;;;;60.30;37.58;;;;;;;12.04;67.54;100712.71;1746340;80;20984;-71
2021/09/10 01:45:15;;;;;;;58.10;36.98;;;;;;;12.03;67.59;100711.87;1737221;80;21017;-72
2021/09/10 01:47:41;;;;;;;61.83;37.38;;;;;;;12.01;67.67;100712.48;1762569;80;22636;-71
2021/09/10 01:50:12;;;;;;;53.05;32.45;;;;;;;11.99;67.71;100706.48;1775170;80;21381;-70
2021/09/10 01:52:39;;;;;;;51.63;33.73;;;;;;;11.96;67.86;100706.70;1715822;82;21044;-72
2021/09/10 01:55:06;;;;;;;48.75;31.85;;;;;;;11.91;68.03;100700.95;1750172;80;21038;-71
2021/09/10 01:57:33;;;;;;;50.17;33.60;;;;;;;11.92;68.18;100702.63;1752185;80;21003;-71
2021/09/10 01:59:59;;;;;;;48.63;32.25;;;;;;;11.93;68.20;100699.02;1731869;82;21640;-71
2021/09/10 02:02:26;;;;;;;47.20;31.35;;;;;;;11.92;68.12;100697.34;1754467;80;21020;-71
2021/09/10 02:04:53;;;;;;;47.33;32.25;;;;;;;11.90;68.09;100697.11;1745940;80;21019;-71
2021/09/10 02:07:21;;;;;;;46.25;31.57;;;;;;;11.87;68.10;100696.88;1757742;80;20992;-71
2021/09/10 02:09:48;;;;;;;48.45;32.65;;;;;;;11.85;68.13;100692.64;1745532;80;21407;-71
2021/09/10 02:12:14;;;;;;;48.80;32.48;;;;;;;11.83;68.13;100691.45;1748705;80;21554;-71
2021/09/10 02:14:41;;;;;;;49.33;33.05;;;;;;;11.82;68.14;100691.58;1774348;80;21388;-71
2021/09/10 02:17:08;;;;;;;52.67;32.80;;;;;;;11.77;68.16;100695.86;1737784;82;21028;-72
2021/09/10 02:19:34;;;;;;;52.93;33.40;;;;;;;11.75;68.21;100692.50;1773245;79;20985;-72
2021/09/10 02:22:00;;;;;;;47.58;31.80;;;;;;;11.74;68.21;100685.05;1728829;82;20964;-72
2021/09/10 02:24:27;;;;;;;50.48;32.88;;;;;;;11.77;68.25;100686.59;1769688;80;22491;-72
2021/09/10 02:26:53;;;;;;;53.02;33.10;;;;;;;11.79;68.24;100686.02;1744425;82;21459;-72
2021/09/10 02:29:20;;;;;;;52.48;33.08;;;;;;;11.80;68.22;100683.77;1748929;80;21427;-72
2021/09/10 02:31:46;;;;;;;50.92;33.15;;;;;;;11.81;68.22;100678.83;1721605;82;21459;-72
2021/09/10 02:34:14;;;;;;;49.98;32.60;;;;;;;11.82;68.20;100684.47;1744651;80;20992;-72
2021/09/10 02:36:40;;;;;;;49.95;31.80;;;;;;;11.82;68.25;100680.98;1771794;80;22244;-72
2021/09/10 02:39:08;;;;;;;48.70;32.25;;;;;;;11.83;68.25;100682.19;1736510;82;20981;-72
2021/09/10 02:41:35;;;;;;;47.98;32.23;;;;;;;11.85;68.18;100678.92;1773169;80;20985;-74
2021/09/10 02:44:03;;;;;;;45.30;31.48;;;;;;;11.86;68.05;100682.41;1737183;82;21606;-72
2021/09/10 02:46:30;;;;;;;50.05;31.17;;;;;;;11.82;67.96;100683.16;1754793;80;20944;-72
2021/09/10 02:48:57;;;;;;;42.55;30.52;;;;;;;11.78;67.94;100679.53;1775088;80;21823;-72
2021/09/10 02:51:23;;;;;;;47.53;30.70;;;;;;;11.72;68.00;100682.17;1760174;80;20999;-72
2021/09/10 02:53:50;;;;;;;44.25;29.98;;;;;;;11.68;68.06;100677.61;1744381;80;20948;-72
2021/09/10 02:56:17;;;;;;;45.40;30.37;;;;;;;11.64;68.12;100678.80;1747456;80;20964;-72
2021/09/10 02:58:44;;;;;;;44.93;29.57;;;;;;;11.60;68.07;100680.02;1744734;80;20949;-72
2021/09/10 03:01:10;;;;;;;40.90;29.18;;;;;;;11.55;68.12;100674.72;1754969;79;22131;-72
2021/09/10 03:03:38;;;;;;;42.17;27.65;;;;;;;11.50;68.23;100676.41;1715137;82;21424;-72
2021/09/10 03:06:05;;;;;;;41.58;28.60;;;;;;;11.47;68.30;100684.56;1763673;80;21368;-72
2021/09/10 03:08:31;;;;;;;44.35;28.05;;;;;;;11.45;68.33;100679.41;1745511;80;21395;-72
2021/09/10 03:10:59;;;;;;;38.45;26.93;;;;;;;11.42;68.32;100686.27;1744593;80;20945;-72
2021/09/10 03:13:26;;;;;;;41.23;28.62;;;;;;;11.37;68.34;100687.09;1767125;80;22161;-72
2021/09/10 03:15:52;;;;;;;40.40;27.13;;;;;;;11.35;68.38;100682.89;1767335;80;21032;-72
2021/09/10 03:18:20;;;;;;;46.58;30.72;;;;;;;11.32;68.40;100683.97;1745145;80;21451;-72
2021/09/10 03:20:48;;;;;;;46.63;29.12;;;;;;;11.28;68.43;100686.48;1748506;80;21095;-75
2021/09/10 03:23:16;;;;;;;44.03;30.02;;;;;;;11.25;68.42;100688.05;1746451;80;20992;-72
2021/09/10 03:25:44;;;;;;;43.30;30.32;;;;;;;11.25;68.46;100691.17;1742569;82;21017;-72
2021/09/10 03:28:11;;;;;;;40.03;29.30;;;;;;;11.26;68.57;100685.77;1735477;82;21049;-72
2021/09/10 03:30:37;;;;;;;42.43;29.37;;;;;;;11.27;68.61;100684.80;1751533;80;20996;-72
2021/09/10 03:33:03;;;;;;;40.48;29.18;;;;;;;11.27;68.68;100687.92;1760602;80;21495;-72
2021/09/10 03:35:30;;;;;;;38.83;27.40;;;;;;;11.28;68.76;100693.09;1760469;80;21400;-72
2021/09/10 03:37:56;;;;;;;41.00;27.67;;;;;;;11.27;68.78;100691.41;1756924;80;22200;-72
2021/09/10 03:40:27;;;;;;;42.30;27.17;;;;;;;11.25;68.76;100689.37;1749981;79;21027;-72
2021/09/10 03:42:53;;;;;;;41.55;27.77;;;;;;;11.24;68.80;100695.62;1747592;80;21027;-72
2021/09/10 03:45:19;;;;;;;45.88;27.62;;;;;;;11.20;68.77;100692.86;1744371;80;21035;-72
2021/09/10 03:47:46;;;;;;;42.10;27.30;;;;;;;11.16;68.83;100694.87;1724669;82;20980;-72
2021/09/10 03:50:13;;;;;;;43.50;27.52;;;;;;;11.15;68.91;100700.29;1746370;80;22245;-71
2021/09/10 03:52:40;;;;;;;41.68;28.17;;;;;;;11.14;68.93;100702.58;1721117;81;20973;-71
2021/09/10 03:55:08;;;;;;;39.13;27.30;;;;;;;11.12;68.92;100702.70;1774797;80;20996;-71
2021/09/10 03:57:36;;;;;;;37.63;27.87;;;;;;;11.11;69.00;100708.11;1719284;82;21474;-71
2021/09/10 04:00:08;;;;;;;43.58;29.23;;;;;;;11.12;69.13;100708.47;1753995;80;21032;-71
2021/09/10 04:02:37;;;;;;;41.00;27.73;;;;;;;11.14;69.19;100707.86;1759227;80;22669;-71
2021/09/10 04:05:06;;;;;;;42.17;27.20;;;;;;;11.17;69.21;100710.27;1748301;80;21000;-69
2021/09/10 04:07:34;;;;;;;38.35;27.50;;;;;;;11.21;69.24;100710.89;1750972;80;20977;-72
2021/09/10 04:10:01;;;;;;;40.00;27.73;;;;;;;11.23;69.27;100709.80;1746697;80;20988;-71
2021/09/10 04:12:30;;;;;;;43.87;29.00;;;;;;;11.28;69.24;100706.79;1759933;80;20924;-74
2021/09/10 04:14:56;;;;;;;45.20;29.32;;;;;;;11.32;69.25;100702.48;1721440;82;22430;-72
2021/09/10 04:17:23;;;;;;;44.05;29.72;;;;;;;11.38;69.33;100707.28;1733488;82;20946;-73
2021/09/10 04:19:51;;;;;;;48.73;31.68;;;;;;;11.42;69.42;100704.78;1759423;80;21178;-70
2021/09/10 04:22:17;;;;;;;46.83;31.45;;;;;;;11.49;69.42;100701.19;1713692;82;21005;-70
2021/09/10 04:24:45;;;;;;;45.60;30.68;;;;;;;11.56;69.34;100705.02;1744346;80;21486;-70
2021/09/10 04:27:12;;;;;;;49.30;32.23;;;;;;;11.64;69.29;100708.39;1744847;80;21865;-71
2021/09/10 04:29:39;;;;;;;48.95;33.20;;;;;;;11.71;69.21;100706.47;1746211;80;20952;-73
2021/09/10 04:32:06;;;;;;;50.60;33.40;;;;;;;11.78;69.14;100707.31;1769803;80;20977;-76
2021/09/10 04:34:33;;;;;;;53.48;33.35;;;;;;;11.83;69.09;100713.95;1752661;80;20964;-72
2021/09/10 04:37:01;;;;;;;49.10;33.15;;;;;;;11.90;69.07;100708.53;1745497;80;21460;-72
2021/09/10 04:39:28;;;;;;;53.48;34.27;;;;;;;11.96;69.02;100710.67;1723916;80;21809;-74
2021/09/10 04:41:54;;;;;;;52.53;34.38;;;;;;;12.03;69.03;100709.70;1763385;80;20988;-71
2021/09/10 04:44:21;;;;;;;63.15;34.98;;;;;;;12.12;69.22;100712.10;1751260;80;20956;-73
2021/09/10 04:46:49;;;;;;;52.80;31.93;;;;;;;12.20;69.09;100712.33;1750725;80;20979;-72
2021/09/10 04:49:16;;;;;;;52.35;30.50;;;;;;;12.27;69.04;100710.88;1752456;82;20940;-71
2021/09/10 04:51:43;;;;;;;48.50;28.98;;;;;;;12.32;69.00;100704.70;1752660;80;21881;-71
2021/09/10 04:54:10;;;;;;;56.45;29.77;;;;;;;12.39;69.00;100706.39;1771117;80;21347;-72
2021/09/10 04:56:39;;;;;;;46.35;29.90;;;;;;;12.45;68.99;100708.06;1783464;80;20933;-72
2021/09/10 04:59:05;;;;;;;44.45;28.17;;;;;;;12.53;69.00;100711.37;1777388;80;20996;-72
2021/09/10 05:01:33;;;;;;;37.05;26.55;;;;;;;12.63;69.02;100710.14;1765095;80;21557;-72
2021/09/10 05:04:00;;;;;;;38.88;27.32;;;;;;;12.71;69.08;100701.07;1774736;80;21814;-71
2021/09/10 05:06:28;;;;;;;37.78;25.23;;;;;;;12.81;69.03;100710.78;1758772;80;21040;-72
2021/09/10 05:08:57;;;;;;;39.88;24.63;;;;;;;12.91;68.99;100712.17;1752458;82;21000;-72
2021/09/10 05:11:23;;;;;;;32.50;23.70;;;;;;;13.02;68.94;100713.44;1753944;80;21506;-72
2021/09/10 05:13:50;;;;;;;31.68;21.05;;;;;;;13.13;68.83;100710.75;1757261;79;20963;-72
2021/09/10 05:16:18;;;;;;;28.07;20.75;;;;;;;13.24;68.67;100711.67;1752747;80;20947;-72
2021/09/10 05:18:45;;;;;;;32.98;19.75;;;;;;;13.36;68.49;100700.01;1752358;80;21054;-72
2021/09/10 05:21:12;;;;;;;28.80;20.35;;;;;;;13.48;68.24;100702.09;1752765;80;20936;-72
2021/09/10 05:23:38;;;;;;;30.50;19.73;;;;;;;13.59;68.06;100704.64;1768262;80;21004;-73
2021/09/10 05:26:04;;;;;;;30.17;19.35;;;;;;;13.69;67.77;100702.38;1757372;80;20991;-71
2021/09/10 05:28:31;;;;;;;28.95;19.20;;;;;;;13.82;67.44;100694.70;1769284;80;21768;-71
2021/09/10 05:30:57;;;;;;;28.50;19.05;;;;;;;13.95;67.15;100695.28;1765758;80;20936;-71
2021/09/10 05:33:24;;;;;;;34.53;19.65;;;;;;;14.09;67.09;100691.39;1767963;80;21011;-72
2021/09/10 05:35:50;;;;;;;33.50;19.37;;;;;;;14.24;67.09;100695.34;1783432;80;20924;-71
2021/09/10 05:38:16;;;;;;;33.10;19.75;;;;;;;14.39;66.93;100691.81;1783531;80;20989;-72
2021/09/10 05:40:43;;;;;;;36.13;21.07;;;;;;;14.55;66.85;100700.09;1768305;79;22218;-72
2021/09/10 05:43:11;;;;;;;34.78;20.40;;;;;;;14.69;66.70;100698.36;1753089;80;21044;-73
2021/09/10 05:45:38;;;;;;;35.55;20.05;;;;;;;14.83;66.56;100690.43;1775469;80;21616;-73
2021/09/10 05:48:06;;;;;;;37.13;21.70;;;;;;;14.99;66.47;100693.85;1763824;80;21170;-72
2021/09/10 05:50:35;;;;;;;38.90;21.80;;;;;;;15.15;66.26;100692.29;1757733;80;21030;-72
2021/09/10 05:53:01;;;;;;;44.33;21.85;;;;;;;15.30;66.04;100683.34;1757572;80;22834;-72
2021/09/10 05:55:28;;;;;;;41.10;20.35;;;;;;;15.46;65.84;100686.73;1783307;80;20920;-71
2021/09/10 05:57:55;;;;;;;35.80;20.70;;;;;;;15.62;65.61;100695.44;1782206;80;21055;-72
2021/09/10 06:00:22;;;;;;;39.63;18.55;;;;;;;15.79;65.41;100694.67;1763070;80;20952;-72
2021/09/10 06:02:48;;;;;;;23.87;14.15;;;;;;;15.96;64.89;100685.89;1772943;80;20968;-72
2021/09/10 06:05:15;;;;;;;19.07;11.68;;;;;;;16.13;63.46;100697.58;1782906;80;21749;-73
2021/09/10 06:07:41;;;;;;;18.42;11.08;;;;;;;16.33;62.21;100703.62;1783551;79;20940;-72
2021/09/10 06:10:12;;;;;;;17.87;11.22;;;;;;;16.52;60.87;100697.31;1773499;80;20944;-72
2021/09/10 06:12:40;;;;;;;17.67;10.45;;;;;;;16.72;60.03;100699.36;1762053;80;20948;-73
2021/09/10 06:15:07;;;;;;;24.52;11.05;;;;;;;16.93;59.21;100699.02;1752621;80;20975;-72
2021/09/10 06:17:36;;;;;;;19.35;11.12;;;;;;;17.10;58.50;100704.83;1769802;80;21463;-74
2021/09/10 06:20:04;;;;;;;21.37;10.78;;;;;;;17.27;57.79;100701.25;1755574;80;20996;-74
2021/09/10 06:22:33;;;;;;;18.90;11.40;;;;;;;17.42;57.08;100694.85;1752434;80;21031;-73
2021/09/10 06:25:02;;;;;;;21.62;11.08;;;;;;;17.55;56.31;100694.41;1752514;82;21067;-72
2021/09/10 06:27:30;;;;;;;20.32;11.97;;;;;;;17.65;56.09;100690.63;1755010;80;20988;-72
2021/09/10 06:29:57;;;;;;;18.75;11.65;;;;;;;17.79;55.66;100693.73;1774465;79;21846;-72
2021/09/10 06:32:24;;;;;;;22.87;12.15;;;;;;;17.93;54.96;100699.29;1777062;80;21071;-72
2021/09/10 06:34:52;;;;;;;16.73;10.85;;;;;;;18.06;55.22;100693.51;1757117;80;20945;-71
2021/09/10 06:37:20;;;;;;;18.10;11.15;;;;;;;18.25;54.50;100695.90;1758851;80;21421;-72
2021/09/10 06:39:47;;;;;;;17.80;11.38;;;;;;;18.37;53.81;100700.94;1769934;80;21019;-75
2021/09/10 06:42:14;;;;;;;17.27;11.40;;;;;;;18.46;54.03;100695.44;1783102;80;22165;-73
2021/09/10 06:44:41;;;;;;;21.52;11.65;;;;;;;18.58;53.63;100700.79;1779785;80;20928;-73
2021/09/10 06:47:07;;;;;;;17.00;11.45;;;;;;;18.69;53.22;100697.48;1751907;81;21007;-75
2021/09/10 06:49:33;;;;;;;17.15;11.57;;;;;;;18.79;52.88;100703.00;1754686;80;21113;-74
2021/09/10 06:52:00;;;;;;;19.37;11.28;;;;;;;18.88;52.37;100703.34;1766271;79;21111;-74
2021/09/10 06:54:26;;;;;;;19.77;11.78;;;;;;;18.96;52.02;100701.17;1772684;80;21785;-75
2021/09/10 06:56:53;;;;;;;16.85;10.40;;;;;;;19.06;51.71;100703.67;1759776;80;21035;-74
2021/09/10 06:59:20;;;;;;;19.23;10.20;;;;;;;19.19;51.56;100704.48;1722972;82;21355;-76
2021/09/10 07:01:47;;;;;;;15.18;10.65;;;;;;;19.29;51.32;100697.94;1760713;80;21061;-75
2021/09/10 07:04:13;;;;;;;16.42;10.78;;;;;;;19.40;51.00;100704.30;1762616;80;20943;-76
2021/09/10 07:06:40;;;;;;;18.77;10.53;;;;;;;19.56;50.92;100707.45;1754809;80;22447;-76
2021/09/10 07:09:06;;;;;;;18.27;10.40;;;;;;;19.72;50.84;100703.89;1753548;80;21006;-74
2021/09/10 07:11:35;;;;;;;19.52;10.40;;;;;;;19.87;51.01;100700.80;1759730;80;20968;-74
2021/09/10 07:14:02;;;;;;;17.95;10.25;;;;;;;20.02;50.93;100703.59;1752343;82;20960;-74
2021/09/10 07:16:31;;;;;;;15.28;10.23;;;;;;;20.16;50.02;100697.48;1760456;80;20955;-74
2021/09/10 07:18:59;;;;;;;14.95;10.50;;;;;;;20.31;49.47;100698.91;1768256;80;21403;-74
2021/09/10 07:21:25;;;;;;;15.50;10.03;;;;;;;20.45;49.39;100701.36;1761224;80;21063;-74
2021/09/10 07:23:52;;;;;;;20.55;9.38;;;;;;;20.61;48.94;100702.59;1745846;80;20929;-76
2021/09/10 07:26:18;;;;;;;16.60;9.78;;;;;;;20.74;48.11;100706.02;1765987;79;20953;-74
2021/09/10 07:28:46;;;;;;;23.10;9.68;;;;;;;20.86;47.84;100709.45;1721159;80;21031;-77
2021/09/10 07:31:13;;;;;;;14.95;9.93;;;;;;;20.99;47.54;100707.49;1744412;80;22144;-76
2021/09/10 07:33:42;;;;;;;17.00;10.30;;;;;;;21.10;47.18;100704.36;1748702;80;21086;-75
2021/09/10 07:36:07;;;;;;;16.15;9.83;;;;;;;21.22;47.07;100702.06;1767887;80;21403;-77
2021/09/10 07:38:35;;;;;;;16.12;9.73;;;;;;;21.32;46.63;100704.52;1764267;80;21018;-76
2021/09/10 07:41:03;;;;;;;20.90;10.23;;;;;;;21.44;46.24;100705.75;1752344;82;20948;-77
2021/09/10 07:43:29;;;;;;;15.38;9.30;;;;;;;21.52;46.02;100707.02;1773621;80;21871;-77
2021/09/10 07:45:56;;;;;;;14.23;9.88;;;;;;;21.62;46.38;100703.53;1758609;80;20992;-78
2021/09/10 07:48:22;;;;;;;16.32;9.45;;;;;;;21.79;45.99;100704.67;1754276;80;20966;-76
2021/09/10 07:50:49;;;;;;;18.05;9.40;;;;;;;21.92;45.35;100698.97;1767123;80;21217;-76
2021/09/10 07:53:16;;;;;;;15.25;9.43;;;;;;;22.04;45.76;100701.17;1756613;80;21035;-73
2021/09/10 07:55:42;;;;;;;16.95;9.83;;;;;;;22.22;45.43;100696.25;1752350;80;22449;-72
2021/09/10 07:58:08;;;;;;;15.80;9.53;;;;;;;22.30;44.40;100696.65;1752532;80;20888;-71
2021/09/10 08:00:35;;;;;;;15.05;9.43;;;;;;;22.37;45.57;100694.33;1772341;80;21465;-74
2021/09/10 08:03:02;;;;;;;15.93;9.43;;;;;;;22.54;45.00;100697.61;1754826;80;20958;-76
2021/09/10 08:05:28;;;;;;;15.68;9.25;;;;;;;22.66;43.95;100696.06;1772760;80;21335;-73
2021/09/10 08:07:55;;;;;;;16.73;9.75;;;;;;;22.67;43.33;100696.89;1752654;80;22196;-74
2021/09/10 08:10:22;;;;;;;13.25;8.83;;;;;;;22.76;44.05;100687.66;1783260;80;20933;-74
2021/09/10 08:12:50;;;;;;;14.25;9.00;;;;;;;22.89;44.02;100695.91;1763591;80;20941;-76
2021/09/10 08:15:19;;;;;;;17.20;8.85;;;;;;;23.04;43.83;100687.72;1752315;81;21004;-74
2021/09/10 08:17:45;;;;;;;14.15;10.30;;;;;;;23.15;43.02;100684.48;1752247;80;21395;-73
2021/09/10 08:20:13;;;;;;;19.65;11.45;;;;;;;23.19;43.36;100677.69;1753362;80;21774;-73
2021/09/10 08:22:40;;;;;;;18.07;11.10;;;;;;;23.17;44.38;100682.45;1752399;82;20924;-73
2021/09/10 08:25:08;;;;;;;24.90;11.08;;;;;;;23.18;45.03;100678.73;1752593;82;21043;-73
2021/09/10 08:27:37;;;;;;;17.12;10.95;;;;;;;23.32;45.97;100672.89;1752251;80;21433;-74
2021/09/10 08:30:06;;;;;;;20.92;12.18;;;;;;;23.54;45.81;100672.30;1775877;80;20964;-74
2021/09/10 08:32:33;;;;;;;19.85;10.93;;;;;;;23.69;45.05;100668.47;1752586;82;21792;-73
2021/09/10 08:35:00;;;;;;;18.57;10.10;;;;;;;23.75;44.83;100669.55;1764771;80;20977;-75
2021/09/10 08:37:27;;;;;;;20.27;11.05;;;;;;;23.85;44.66;100670.01;1783318;80;20976;-72
2021/09/10 08:39:55;;;;;;;18.10;10.75;;;;;;;24.01;44.36;100664.76;1783281;80;20988;-72
2021/09/10 08:42:21;;;;;;;14.70;9.78;;;;;;;24.16;44.40;100663.26;1783265;80;21011;-72
2021/09/10 08:44:48;;;;;;;17.77;9.68;;;;;;;24.32;43.76;100664.77;1756578;80;22217;-73
2021/09/10 08:47:14;;;;;;;19.48;9.83;;;;;;;24.47;42.99;100668.13;1750670;80;20997;-73
2021/09/10 08:49:41;;;;;;;13.15;9.35;;;;;;;24.55;42.54;100668.77;1775106;80;20930;-73
2021/09/10 08:52:08;;;;;;;15.95;9.15;;;;;;;24.65;42.80;100666.18;1773153;80;20933;-72
2021/09/10 08:54:35;;;;;;;14.63;8.85;;;;;;;24.78;42.71;100666.17;1744284;82;21048;-74
2021/09/10 08:57:01;;;;;;;14.43;8.93;;;;;;;24.94;42.63;100664.41;1744406;82;22215;-73
2021/09/10 08:59:28;;;;;;;12.07;8.45;;;;;;;25.07;41.89;100656.31;1744529;82;20972;-73
2021/09/10 09:01:59;;;;;;;11.70;8.13;;;;;;;25.19;41.48;100655.18;1744364;81;20992;-73
2021/09/10 09:04:34;;;;;;;16.77;8.03;;;;;;;25.22;40.39;100656.63;1751105;80;21044;-73
2021/09/10 09:07:01;;;;;;;12.25;7.37;;;;;;;25.31;40.28;100651.30;1744501;80;20945;-74
2021/09/10 09:09:45;;;;;;;11.40;7.67;;;;;;;25.42;39.67;100646.59;1729694;80;21752;-73
2021/09/10 09:12:21;;;;;;;10.93;6.37;;;;;;;25.55;39.46;100641.13;1774489;80;21423;-73
2021/09/10 09:14:57;;;;;;;9.03;6.50;;;;;;;25.59;37.98;100633.44;1775044;80;20916;-73
2021/09/10 09:17:31;;;;;;;9.03;6.78;;;;;;;25.67;37.79;100635.88;1774025;80;20988;-72
2021/09/10 09:20:26;;;;;;;10.13;6.90;;;;;;;25.78;37.36;100637.97;1744636;80;21011;-78
2021/09/10 09:23:10;;;;;;;9.35;6.90;;;;;;;25.88;37.33;100631.57;1744369;82;22230;-74
2021/09/10 09:25:41;;;;;;;9.68;6.28;;;;;;;25.97;36.72;100633.51;1744321;81;20984;-75
2021/09/10 09:28:30;;;;;;;10.75;7.08;;;;;;;26.09;36.23;100629.06;1771780;80;20950;-75
2021/09/10 09:31:02;;;;;;;10.78;6.92;;;;;;;26.02;35.47;100630.97;1775268;80;20981;-75
2021/09/10 09:33:34;;;;;;;12.28;7.00;;;;;;;25.99;35.68;100624.64;1775071;80;20937;-77
2021/09/10 09:36:05;;;;;;;9.80;6.80;;;;;;;26.01;36.25;100625.25;1774760;80;21823;-78
2021/09/10 09:38:37;;;;;;;12.00;7.17;;;;;;;26.12;36.00;100622.37;1775349;79;21325;-78
2021/09/10 09:41:17;;;;;;;15.65;7.72;;;;;;;26.31;35.86;100624.64;1768904;80;21028;-77
2021/09/10 09:43:48;;;;;;;9.80;6.75;;;;;;;26.47;35.28;100624.16;1745275;80;20984;-74
2021/09/10 09:46:17;;;;;;;10.35;7.30;;;;;;;26.66;34.34;100617.75;1750518;80;21035;-76
2021/09/10 09:48:50;;;;;;;10.00;7.35;;;;;;;26.71;34.62;100616.54;1769992;80;21804;-76
2021/09/10 09:51:20;;;;;;;15.38;7.53;;;;;;;26.76;33.58;100622.67;1763745;80;20965;-78
2021/09/10 09:53:47;;;;;;;13.03;7.53;;;;;;;26.82;33.89;100616.34;1744885;82;20976;-73
2021/09/10 09:56:13;;;;;;;10.53;7.33;;;;;;;26.95;34.00;100617.59;1744398;82;21414;-72
2021/09/10 09:58:45;;;;;;;11.60;7.55;;;;;;;27.15;33.80;100611.17;1744431;82;20921;-71
2021/09/10 10:01:12;;;;;;;18.17;7.25;;;;;;;27.36;33.62;100608.83;1759598;79;22497;-76
2021/09/10 10:03:40;;;;;;;9.40;6.95;;;;;;;27.49;33.41;100607.01;1775060;80;21009;-73
2021/09/10 10:06:24;;;;;;;11.50;6.90;;;;;;;27.64;33.11;100604.22;1765256;80;21063;-73
2021/09/10 10:09:00;;;;;;;7.87;6.90;;;;;;;27.81;32.74;100600.38;1750273;80;21492;-72
2021/09/10 10:11:43;;;;;;;14.93;6.62;;;;;;;27.94;31.88;100603.44;1756560;80;21028;-76
2021/09/10 10:14:15;;;;;;;11.57;6.53;;;;;;;28.08;31.84;100595.91;1744879;80;21743;-74
2021/09/10 10:16:45;;;;;;;11.43;7.30;;;;;;;28.19;31.86;100601.94;1748160;80;20941;-74
2021/09/10 10:19:27;;;;;;;9.83;7.00;;;;;;;28.26;32.15;100601.28;1763101;80;20971;-74
2021/09/10 10:22:03;;;;;;;9.25;6.92;;;;;;;28.39;31.54;100593.51;1771254;80;21042;-71
2021/09/10 10:24:54;;;;;;;9.53;6.65;;;;;;;28.49;31.69;100598.66;1756580;80;21099;-73
2021/09/10 10:27:40;;;;;;;11.93;7.28;;;;;;;28.61;31.69;100597.84;1773141;80;21919;-73
2021/09/10 10:30:40;;;;;;;9.05;6.70;;;;;;;28.80;31.57;100598.85;1775058;80;21028;-75
2021/09/10 10:33:24;;;;;;;10.03;6.30;;;;;;;28.99;31.42;100600.95;1755440;80;21035;-78
2021/09/10 10:35:51;;;;;;;13.75;7.08;;;;;;;29.08;30.76;100596.81;1763091;80;20953;-79
2021/09/10 10:38:18;;;;;;;11.50;6.80;;;;;;;29.13;30.78;100593.36;1754912;80;21463;-79
2021/09/10 10:40:50;;;;;;;13.10;8.08;;;;;;;29.23;30.59;100587.31;1773744;80;22597;-80
2021/09/10 10:43:24;;;;;;;11.68;7.03;;;;;;;29.36;30.43;100587.89;1762184;80;21051;-80
2021/09/10 10:46:00;;;;;;;10.08;6.97;;;;;;;29.36;30.43;100587.89;1743401;82;20952;-80
2021/09/10 10:48:36;;;;;;;15.03;8.00;;;;;;;29.32;29.32;100584.52;1748941;81;21031;-81
2021/09/10 10:51:21;;;;;;;9.53;6.85;;;;;;;29.22;29.84;100582.41;1752674;80;20960;-78
2021/09/10 10:53:56;;;;;;;10.08;6.72;;;;;;;29.20;28.95;100581.83;1752316;82;22458;-79
2021/09/10 10:56:33;;;;;;;8.88;7.15;;;;;;;29.02;30.00;100585.51;1717396;82;39686;-78
2021/09/10 10:59:19;;;;;;;8.53;6.92;;;;;;;29.10;30.32;100576.16;1752235;82;20957;-79
2021/09/10 11:02:36;;;;;;;10.20;6.70;;;;;;;29.28;30.37;100576.02;1752312;80;21470;-78
2021/09/10 11:05:16;;;;;;;9.40;6.60;;;;;;;29.55;29.89;100574.15;1758818;80;20944;-77
2021/09/10 11:07:44;;;;;;;11.93;6.67;;;;;;;29.64;29.38;100573.52;1752457;82;21815;-77
2021/09/10 11:10:14;;;;;;;10.35;6.50;;;;;;;29.71;29.27;100567.09;1753038;80;20940;-73
2021/09/10 11:12:45;;;;;;;11.65;6.37;;;;;;;29.79;29.54;100570.78;1772255;80;21388;-74
2021/09/10 11:15:29;;;;;;;11.65;6.70;;;;;;;29.93;28.46;100566.70;1752372;81;21059;-76
2021/09/10 11:18:14;;;;;;;9.88;6.37;;;;;;;29.48;28.34;100562.53;1765062;80;21474;-76
2021/09/10 11:20:49;;;;;;;8.60;6.50;;;;;;;29.48;28.34;100562.53;1783546;79;22237;-77